Home > Products > Valid Products > MTR

000
SAUS41 KOKX 021232
MTRNYC
SPECI KNYC 021230Z AUTO 30007KT 5SM HZ BKN021 OVC042 00/M04 A3008
RMK AO2 T00001039





000
SAUS41 KOKX 021155
MTRMTP
METAR KMTP 021154Z AUTO 26008KT M01/M03 A2999 RMK AO1 SLP154 70062
T10111033 11011 21011 58014 $





000
SAUS41 KOKX 021152
MTRNYC
METAR KNYC 021151Z AUTO 29005KT 6SM HZ OVC060 00/M04 A3005 RMK AO2
SLP169 70052 T00001039 10000 21022 55003





000
SAUS41 KOKX 021055
MTRMTP
METAR KMTP 021054Z AUTO 26009KT M01/M03 A3000 RMK AO1 SLP159
T10111033 $





000
SAUS41 KOKX 021055
MTRMTP
METAR KMTP 021054Z AUTO 26009KT M01/M03 A3000 RMK AO1 SLP159
T10111033 $





000
SAUS41 KOKX 021052
MTRNYC
METAR KNYC 021051Z AUTO VRB03KT 8SM OVC060 M01/M04 A3004 RMK AO2
SLP164 T10061044





000
SAUS41 KOKX 020955
MTRMTP
METAR KMTP 020954Z AUTO 27009KT M01/M03 A3002 RMK AO1 SLP166
T10111033 $





000
SAUS41 KOKX 020955
MTRMTP
METAR KMTP 020954Z AUTO 27009KT M01/M03 A3002 RMK AO1 SLP166
T10111033 $





000
SAUS41 KOKX 020952
MTRNYC
METAR KNYC 020951Z AUTO VRB04KT 8SM OVC070 M01/M04 A3004 RMK AO2
SLP166 T10111044





000
SAUS41 KOKX 020855
MTRMTP
METAR KMTP 020854Z AUTO 25007KT M01/M03 A3003 RMK AO1 SLP167
T10111028 56027 $





000
SAUS41 KOKX 020855
MTRMTP
METAR KMTP 020854Z AUTO 25007KT M01/M03 A3003 RMK AO1 SLP167
T10111028 56027 $





000
SAUS41 KOKX 020852
MTRNYC
METAR KNYC 020851Z AUTO 27005KT 8SM BKN036 OVC070 M01/M04 A3006 RMK
AO2 SLP172 T10111044 58016





000
SAUS41 KOKX 020755
MTRMTP
METAR KMTP 020754Z AUTO 25004KT M01/M03 A3004 RMK AO1 SLP170
T10111028 $





000
SAUS41 KOKX 020752
MTRNYC
METAR KNYC 020751Z AUTO VRB05KT 7SM OVC037 M01/M04 A3008 RMK AO2
SLP178 T10111044





000
SAUS41 KOKX 020655
MTRMTP
METAR KMTP 020654Z AUTO 25005KT M01/M03 A3007 RMK AO1 SLP180
T10111028 $





000
SAUS41 KOKX 020655
MTRMTP
METAR KMTP 020654Z AUTO 25005KT M01/M03 A3007 RMK AO1 SLP180
T10111028 $





000
SAUS41 KOKX 020653
MTRNYC
METAR KNYC 020651Z AUTO VRB03KT 6SM HZ FEW009 OVC040 M02/M05 A3011
RMK AO2 SLP189 T10171050





000
SAUS41 KOKX 020653
MTRNYC
METAR KNYC 020651Z AUTO VRB03KT 6SM HZ FEW009 OVC040 M02/M05 A3011
RMK AO2 SLP189 T10171050





000
SAUS41 KOKX 020650
MTRNYC
SPECI KNYC 020649Z AUTO VRB04KT 6SM HZ SCT009 OVC040 M02/M05 A3011
RMK AO2





000
SAUS41 KOKX 020650
MTRNYC
SPECI KNYC 020649Z AUTO VRB04KT 6SM HZ SCT009 OVC040 M02/M05 A3011
RMK AO2





000
SAUS41 KOKX 020614
MTRNYC
SPECI KNYC 020612Z AUTO 00000KT 6SM HZ BKN009 BKN042 OVC080 M02/M05
A3012 RMK AO2 T10171050





000
SAUS41 KOKX 020614
MTRNYC
SPECI KNYC 020612Z AUTO 00000KT 6SM HZ BKN009 BKN042 OVC080 M02/M05
A3012 RMK AO2 T10171050





000
SAUS41 KOKX 020609
MTRNYC
SPECI KNYC 020608Z AUTO 00000KT 6SM HZ SCT010 BKN042 OVC080 M02/M05
A3012 RMK AO2 T10171050





000
SAUS41 KOKX 020609
MTRNYC
SPECI KNYC 020608Z AUTO 00000KT 6SM HZ SCT010 BKN042 OVC080 M02/M05
A3012 RMK AO2 T10171050





000
SAUS41 KOKX 020555
MTRMTP
METAR KMTP 020554Z AUTO 29004KT M01/M02 A3011 RMK AO1 SLP194 P0001
60031 T10111022 10000 21011 56040 $





000
SAUS41 KOKX 020555
MTRMTP
METAR KMTP 020554Z AUTO 29004KT M01/M02 A3011 RMK AO1 SLP194 P0001
60031 T10111022 10000 21011 56040 $





000
SAUS41 KOKX 020552
MTRNYC
METAR KNYC 020551Z AUTO 00000KT 6SM HZ BKN010 BKN049 OVC080 M02/M05
A3014 RMK AO2 SLP198 60008 I6000 T10221050 11022 21028 56035





000
SAUS41 KOKX 020536
MTRNYC
SPECI KNYC 020534Z AUTO VRB03KT 6SM HZ BKN010 OVC048 M02/M06 A3014
RMK AO2 T10221056





000
SAUS41 KOKX 020536
MTRNYC
SPECI KNYC 020534Z AUTO VRB03KT 6SM HZ BKN010 OVC048 M02/M06 A3014
RMK AO2 T10221056





000
SAUS41 KOKX 020456
MTRMTP
METAR KMTP 020454Z AUTO 27004KT M01/M02 A3013 RMK AO1 SLP202 P0003
T10111022 400061122 $





000
SAUS41 KOKX 020452
MTRNYC
METAR KNYC 020451Z AUTO 00000KT 6SM HZ OVC046 M02/M06 A3016 RMK AO2
SLP206 T10221056 410061044





000
SAUS41 KOKX 020452
MTRNYC
METAR KNYC 020451Z AUTO 00000KT 6SM HZ OVC046 M02/M06 A3016 RMK AO2
SLP206 T10221056 410061044





000
SAUS41 KOKX 020355
MTRMTP
METAR KMTP 020354Z AUTO 33003KT M01/M02 A3016 RMK AO1 PRESFR SLP214
P0003 T10061022 $





000
SAUS41 KOKX 020353
MTRNYC
METAR KNYC 020351Z AUTO 32003KT 6SM HZ FEW036 OVC060 M02/M06 A3020
RMK AO2 UPE04 SLP219 P0000 I1000 T10221056





000
SAUS41 KOKX 020334
MTRNYC
SPECI KNYC 020333Z AUTO 31003KT 6SM HZ SCT012 BKN036 OVC055 M02/M05
A3022 RMK AO2 UPE04 P0000 I1000 T10221050





000
SAUS41 KOKX 020255
MTRMTP
METAR KMTP 020254Z AUTO 32003KT M01/M02 A3023 RMK AO1 SLP235 P0006
60024 T10111022 58036 $





000
SAUS41 KOKX 020253
MTRNYC
METAR KNYC 020251Z AUTO 32003KT 5SM UP OVC013 M02/M05 A3024 RMK AO2
UPB0152E05B50 SLP232 P0000 60008 T10221050 58023





000
SAUS41 KOKX 020235
MTRNYC
SPECI KNYC 020233Z AUTO 00000KT 5SM BR OVC012 M03/M05 A3024 RMK AO2
UPB0152E05 P0000 T10281050





000
SAUS41 KOKX 020235
MTRNYC
SPECI KNYC 020233Z AUTO 00000KT 5SM BR OVC012 M03/M05 A3024 RMK AO2
UPB0152E05 P0000 T10281050





000
SAUS41 KOKX 020226
MTRNYC
SPECI KNYC 020224Z AUTO 00000KT 5SM BR BKN009 OVC014 M03/M05 A3024
RMK AO2 UPB0152E05 PRESFR P0000 T10281050





000
SAUS41 KOKX 020226
MTRNYC
SPECI KNYC 020224Z AUTO 00000KT 5SM BR BKN009 OVC014 M03/M05 A3024
RMK AO2 UPB0152E05 PRESFR P0000 T10281050





000
SAUS41 KOKX 020216
MTRNYC
SPECI KNYC 020215Z AUTO 00000KT 5SM BR OVC013 M03/M05 A3026 RMK AO2
UPB0152E05 P0000 T10281050





000
SAUS41 KOKX 020216
MTRNYC
SPECI KNYC 020215Z AUTO 00000KT 5SM BR OVC013 M03/M05 A3026 RMK AO2
UPB0152E05 P0000 T10281050





000
SAUS41 KOKX 020155
MTRMTP
METAR KMTP 020154Z AUTO 33004KT M01/M02 A3026 RMK AO1 SLP247 P0008
T10111022 $





000
SAUS41 KOKX 020155
MTRMTP
METAR KMTP 020154Z AUTO 33004KT M01/M02 A3026 RMK AO1 SLP247 P0008
T10111022 $





000
SAUS41 KOKX 020152
MTRNYC
METAR KNYC 020151Z AUTO 00000KT 4SM HZ OVC015 M03/M06 A3027 RMK AO2
SNE49 PRESFR SLP244 P0004 T10281056





000
SAUS41 KOKX 020148
MTRNYC
SPECI KNYC 020146Z AUTO VRB03KT 4SM -SN OVC017 M03/M06 A3028 RMK AO2
P0004





000
SAUS41 KOKX 020148
MTRNYC
SPECI KNYC 020146Z AUTO VRB03KT 4SM -SN OVC017 M03/M06 A3028 RMK AO2
P0004





000
SAUS41 KOKX 020139
MTRNYC
SPECI KNYC 020138Z AUTO VRB03KT 2 1/2SM -SN OVC017 M03/M06 A3029 RMK
AO2 P0004 T10281056





000
SAUS41 KOKX 020139
MTRNYC
SPECI KNYC 020138Z AUTO VRB03KT 2 1/2SM -SN OVC017 M03/M06 A3029 RMK
AO2 P0004 T10281056





000
SAUS41 KOKX 020132
MTRNYC
SPECI KNYC 020131Z AUTO 31004KT 1 3/4SM -SN FEW008 OVC019 M03/M06
A3029 RMK AO2 P0003 T10281056





000
SAUS41 KOKX 020112
MTRNYC
SPECI KNYC 020110Z AUTO 00000KT 1SM -SN BR SCT012 OVC017 M03/M05
A3030 RMK AO2 P0002 T10281050





000
SAUS41 KOKX 020112
MTRNYC
SPECI KNYC 020110Z AUTO 00000KT 1SM -SN BR SCT012 OVC017 M03/M05
A3030 RMK AO2 P0002 T10281050





000
SAUS41 KOKX 020103
MTRNYC
SPECI KNYC 020102Z AUTO 00000KT 1 1/4SM -SN BKN012 OVC017 M02/M05
A3031 RMK AO2 P0001 T10221050





000
SAUS41 KOKX 020103
MTRNYC
SPECI KNYC 020102Z AUTO 00000KT 1 1/4SM -SN BKN012 OVC017 M02/M05
A3031 RMK AO2 P0001 T10221050





000
SAUS41 KOKX 020055
MTRMTP
METAR KMTP 020054Z AUTO 00000KT 00/M02 A3030 RMK AO1 SLP260 P0010
T00001017 $





000
SAUS41 KOKX 020055
MTRMTP
METAR KMTP 020054Z AUTO 00000KT 00/M02 A3030 RMK AO1 SLP260 P0010
T00001017 $





000
SAUS41 KOKX 020052
MTRNYC
METAR KNYC 020051Z AUTO 00000KT 2 1/2SM -SN OVC011 M02/M06 A3031 RMK
AO2 SLP256 P0004 T10221056





000
SAUS41 KOKX 020052
MTRNYC
METAR KNYC 020051Z AUTO 00000KT 2 1/2SM -SN OVC011 M02/M06 A3031 RMK
AO2 SLP256 P0004 T10221056





000
SAUS41 KOKX 012355
MTRMTP
METAR KMTP 012354Z AUTO 00000KT M01/M02 A3033 RMK AO1 SLP271 P0009
60031 T10061022 10006 21011 58038 $





000
SAUS41 KOKX 012355
MTRMTP
METAR KMTP 012354Z AUTO 00000KT M01/M02 A3033 RMK AO1 SLP271 P0009
60031 T10061022 10006 21011 58038 $





000
SAUS41 KOKX 012352
MTRNYC
METAR KNYC 012351Z AUTO 00000KT 3SM -SN OVC011 M02/M06 A3033 RMK AO2
CIG 010V014 SLP263 P0005 60044 T10221056 11022 21033 56010





000
SAUS41 KOKX 012352
MTRNYC
METAR KNYC 012351Z AUTO 00000KT 3SM -SN OVC011 M02/M06 A3033 RMK AO2
CIG 010V014 SLP263 P0005 60044 T10221056 11022 21033 56010





000
SAUS41 KOKX 012350
MTRNYC
SPECI KNYC 012348Z AUTO 00000KT 2 1/2SM -SN OVC011 M02/M06 A3033 RMK
AO2 CIG 010V014 P0005





000
SAUS41 KOKX 012350
MTRNYC
SPECI KNYC 012348Z AUTO 00000KT 2 1/2SM -SN OVC011 M02/M06 A3033 RMK
AO2 CIG 010V014 P0005





000
SAUS41 KOKX 012308
MTRNYC
SPECI KNYC 012306Z AUTO 00000KT 3SM -SN BR OVC014 M03/M05 A3034 RMK
AO2 P0002 T10281050





000
SAUS41 KOKX 012308
MTRNYC
SPECI KNYC 012306Z AUTO 00000KT 3SM -SN BR OVC014 M03/M05 A3034 RMK
AO2 P0002 T10281050





000
SAUS41 KOKX 012255
MTRMTP
METAR KMTP 012254Z AUTO 19004KT M01/M03 A3037 RMK AO1 SLP282 P0008
T10061028 $





000
SAUS41 KOKX 012255
MTRMTP
METAR KMTP 012254Z AUTO 19004KT M01/M03 A3037 RMK AO1 SLP282 P0008
T10061028 $





000
SAUS41 KOKX 012252
MTRNYC
METAR KNYC 012251Z AUTO 00000KT 1 1/4SM -SN BR OVC014 M03/M05 A3036
RMK AO2 SLP272 P0007 T10281050





000
SAUS41 KOKX 012252
MTRNYC
METAR KNYC 012251Z AUTO 00000KT 1 1/4SM -SN BR OVC014 M03/M05 A3036
RMK AO2 SLP272 P0007 T10281050





000
SAUS41 KOKX 012248
MTRNYC
SPECI KNYC 012247Z AUTO 00000KT 1SM -SN BR OVC013 M03/M05 A3036 RMK
AO2 P0007





000
SAUS41 KOKX 012155
MTRMTP
METAR KMTP 012154Z AUTO 21003KT M01/M03 A3041 RMK AO1 SLP298 P0005
T10061028 $





000
SAUS41 KOKX 012155
MTRMTP
METAR KMTP 012154Z AUTO 21003KT M01/M03 A3041 RMK AO1 SLP298 P0005
T10061028 $





000
SAUS41 KOKX 012152
MTRNYC
METAR KNYC 012151Z AUTO 00000KT 1/2SM SN FEW009 OVC014 M03/M06 A3039
RMK AO2 SLP283 P0009 T10281056





000
SAUS41 KOKX 012147
MTRNYC
SPECI KNYC 012146Z AUTO 00000KT 1/2SM SN FEW009 OVC014 M03/M06 A3039
RMK AO2 P0008





000
SAUS41 KOKX 012147
MTRNYC
SPECI KNYC 012146Z AUTO 00000KT 1/2SM SN FEW009 OVC014 M03/M06 A3039
RMK AO2 P0008





000
SAUS41 KOKX 012140
MTRNYC
SPECI KNYC 012138Z AUTO 00000KT 1/2SM SN BKN009 OVC014 M03/M06 A3040
RMK AO2 P0007 T10281056





000
SAUS41 KOKX 012140
MTRNYC
SPECI KNYC 012138Z AUTO 00000KT 1/2SM SN BKN009 OVC014 M03/M06 A3040
RMK AO2 P0007 T10281056





000
SAUS41 KOKX 012132
MTRNYC
SPECI KNYC 012130Z AUTO 00000KT 1/2SM SN FEW006 OVC012 M03/M06 A3041
RMK AO2 P0006 T10281056





000
SAUS41 KOKX 012109
MTRNYC
SPECI KNYC 012107Z AUTO 00000KT 1/2SM SN OVC013 M03/M06 A3042 RMK
AO2 P0002 T10331061





000
SAUS41 KOKX 012109
MTRNYC
SPECI KNYC 012107Z AUTO 00000KT 1/2SM SN OVC013 M03/M06 A3042 RMK
AO2 P0002 T10331061





000
SAUS41 KOKX 012055
MTRMTP
METAR KMTP 012054Z AUTO 21004KT M01/M03 A3044 RMK AO1 SLP309 P0005
60009 T10061028 58043 $





000
SAUS41 KOKX 012055
MTRMTP
METAR KMTP 012054Z AUTO 21004KT M01/M03 A3044 RMK AO1 SLP309 P0005
60009 T10061028 58043 $





000
SAUS41 KOKX 012053
MTRNYC
METAR KNYC 012051Z AUTO 00000KT 1/2SM SN SCT008 OVC015 M03/M06 A3042
RMK AO2 SLP295 P0012 60023 T10331061 58046





000
SAUS41 KOKX 012010
MTRNYC
SPECI KNYC 012009Z AUTO 00000KT 1/4SM +SN FZFG VV008 M03/M06 A3045
RMK AO2 P0003 T10331056





000
SAUS41 KOKX 011955
MTRMTP
METAR KMTP 011954Z AUTO 20005KT M01/M03 A3049 RMK AO1 SLP325 P0004
T10111033 $





000
SAUS41 KOKX 011955
MTRMTP
METAR KMTP 011954Z AUTO 20005KT M01/M03 A3049 RMK AO1 SLP325 P0004
T10111033 $





000
SAUS41 KOKX 011952
MTRNYC
METAR KNYC 011951Z AUTO 00000KT 1/2SM SN OVC012 M03/M06 A3046 RMK
AO2 SLP309 P0007 T10281061





000
SAUS41 KOKX 011923
MTRNYC
SPECI KNYC 011922Z AUTO 00000KT 1/4SM +SN OVC011 M03/M06 A3049 RMK
AO2 P0004 T10331061





000
SAUS41 KOKX 011912
MTRNYC
SPECI KNYC 011910Z AUTO 00000KT 1/4SM +SN OVC009 M03/M06 A3050 RMK
AO2 P0003 T10331061





000
SAUS41 KOKX 011855
MTRMTP
METAR KMTP 011854Z AUTO 20009G17KT M01/M06 A3054 RMK AO1 SLP342
T10111056 $





000
SAUS41 KOKX 011855
MTRMTP
METAR KMTP 011854Z AUTO 20009G17KT M01/M06 A3054 RMK AO1 SLP342
T10111056 $





000
SAUS41 KOKX 011852
MTRNYC
METAR KNYC 011851Z AUTO 00000KT 1/4SM +SN VV011 M03/M06 A3052 RMK
AO2 SLP328 P0004 T10331061





000
SAUS41 KOKX 011852
MTRNYC
METAR KNYC 011851Z AUTO 00000KT 1/4SM +SN VV011 M03/M06 A3052 RMK
AO2 SLP328 P0004 T10331061





000
SAUS41 KOKX 011824
MTRNYC
SPECI KNYC 011823Z AUTO 25004KT 1/4SM +SN BKN013 OVC020 M03/M07
A3054 RMK AO2 P0001 T10331072





000
SAUS41 KOKX 011824
MTRNYC
SPECI KNYC 011823Z AUTO 25004KT 1/4SM +SN BKN013 OVC020 M03/M07
A3054 RMK AO2 P0001 T10331072





000
SAUS41 KOKX 011816
MTRNYC
SPECI KNYC 011815Z AUTO 25006KT 1/2SM SN SCT015 OVC022 M03/M08 A3055
RMK AO2 P0000 T10331078





000
SAUS41 KOKX 011801
MTRNYC
SPECI KNYC 011800Z AUTO 1 3/4SM -SN BKN022 OVC042 M02/M08 A3055 RMK
AO2 P0000 T10221083





000
SAUS41 KOKX 011755
MTRMTP
METAR KMTP 011754Z AUTO 20007KT 01/M08 A3057 RMK AO1 SLP351
T00061078 10006 21067 58025 $





000
SAUS41 KOKX 011755
MTRMTP
METAR KMTP 011754Z AUTO 20007KT 01/M08 A3057 RMK AO1 SLP351
T00061078 10006 21067 58025 $





000
SAUS41 KOKX 011753
MTRNYC
METAR KNYC 011751Z AUTO VRB05KT 2 1/2SM -SN FEW026 BKN042 OVC049
M02/M09 A3056 RMK AO2 SNB32 SLP341 P0000 60000 T10221094 11006 21028
58023





000
SAUS41 KOKX 011753
MTRNYC
METAR KNYC 011751Z AUTO VRB05KT 2 1/2SM -SN FEW026 BKN042 OVC049
M02/M09 A3056 RMK AO2 SNB32 SLP341 P0000 60000 T10221094 11006 21028
58023





000
SAUS41 KOKX 011743
MTRNYC
SPECI KNYC 011741Z AUTO 2SM -SN BKN041 BKN050 OVC065 M02/M10 A3057
RMK AO2 SNB32 P0000 T10221100





000
SAUS41 KOKX 011743
MTRNYC
SPECI KNYC 011741Z AUTO 2SM -SN BKN041 BKN050 OVC065 M02/M10 A3057
RMK AO2 SNB32 P0000 T10221100





000
SAUS41 KOKX 011656
MTRMTP
METAR KMTP 011654Z AUTO 00000KT 00/M08 A3060 RMK AO1 SLP362
T00001083 $





000
SAUS41 KOKX 011656
MTRMTP
METAR KMTP 011654Z AUTO 00000KT 00/M08 A3060 RMK AO1 SLP362
T00001083 $





000
SAUS41 KOKX 011653
MTRNYC
METAR KNYC 011651Z AUTO VRB05G17KT 8SM BKN046 OVC060 M01/M14 A3060
RMK AO2 SLP353 T10111144





000
SAUS41 KOKX 011653
MTRNYC
METAR KNYC 011651Z AUTO VRB05G17KT 8SM BKN046 OVC060 M01/M14 A3060
RMK AO2 SLP353 T10111144





000
SAUS41 KOKX 011555
MTRMTP
METAR KMTP 011554Z AUTO VRB04KT M01/M09 A3062 RMK AO1 SLP368
T10061094 $





000
SAUS41 KOKX 011552
MTRNYC
METAR KNYC 011551Z AUTO 18006KT 10SM BKN043 OVC050 M01/M17 A3062 RMK
AO2 SLP360 T10111167





000
SAUS41 KOKX 011455
MTRMTP
METAR KMTP 011454Z AUTO VRB03KT M01/M10 A3064 RMK AO1 SLP376
T10111100 58020 $





000
SAUS41 KOKX 011455
MTRMTP
METAR KMTP 011454Z AUTO VRB03KT M01/M10 A3064 RMK AO1 SLP376
T10111100 58020 $





000
SAUS41 KOKX 011452
MTRNYC
METAR KNYC 011451Z AUTO 16003KT 10SM OVC060 M01/M15 A3063 RMK AO2
SLP363 T10111150 58018





000
SAUS41 KOKX 011452
MTRNYC
METAR KNYC 011451Z AUTO 16003KT 10SM OVC060 M01/M15 A3063 RMK AO2
SLP363 T10111150 58018





000
SAUS41 KOKX 011355
MTRMTP
METAR KMTP 011354Z AUTO 00000KT M02/M09 A3069 RMK AO1 SLP391
T10171094 $





000
SAUS41 KOKX 011352
MTRNYC
METAR KNYC 011351Z AUTO 16006KT 10SM OVC065 M01/M16 A3065 RMK AO2
SLP371 T10111161





000
SAUS41 KOKX 011255
MTRMTP
METAR KMTP 011254Z AUTO 00000KT M03/M04 A3069 RMK AO1 SLP393
T10331044 $





000
SAUS41 KOKX 011255
MTRMTP
METAR KMTP 011254Z AUTO 00000KT M03/M04 A3069 RMK AO1 SLP393
T10331044 $





000
SAUS41 KOKX 011253
MTRNYC
METAR KNYC 011251Z AUTO 00000KT 10SM BKN055 OVC070 M02/M16 A3066 RMK
AO2 SLP377 T10221156





000
SAUS41 KOKX 011253
MTRNYC
METAR KNYC 011251Z AUTO 00000KT 10SM BKN055 OVC070 M02/M16 A3066 RMK
AO2 SLP377 T10221156





000
SAUS41 KOKX 011155
MTRMTP
METAR KMTP 011154Z AUTO 00000KT M06/M09 A3070 RMK AO1 SLP396
T10611089 11044 21122 50002 $





000
SAUS41 KOKX 011152
MTRNYC
METAR KNYC 011151Z AUTO 00000KT 10SM OVC070 M03/M18 A3068 RMK AO2
SLP382 T10281183 11028 21044 58002





000
SAUS41 KOKX 011055
MTRMTP
METAR KMTP 011054Z AUTO M08/M11 A3071 RMK AO1 SLP399 T10831111 $





000
SAUS41 KOKX 011053
MTRNYC
METAR KNYC 011051Z AUTO 26003KT 10SM BKN080 OVC100 M03/M18 A3070 RMK
AO2 SLP388 T10331183





000
SAUS41 KOKX 010955
MTRMTP
METAR KMTP 010954Z AUTO 00000KT M10/M13 A3071 RMK AO1 SLP398
T11001128 $





000
SAUS41 KOKX 010955
MTRMTP
METAR KMTP 010954Z AUTO 00000KT M10/M13 A3071 RMK AO1 SLP398
T11001128 $





000
SAUS41 KOKX 010953
MTRNYC
METAR KNYC 010951Z AUTO 32004KT 10SM FEW120 M04/M15 A3070 RMK AO2
SLP387 T10391150





000
SAUS41 KOKX 010953
MTRNYC
METAR KNYC 010951Z AUTO 32004KT 10SM FEW120 M04/M15 A3070 RMK AO2
SLP387 T10391150





000
SAUS41 KOKX 010855
MTRMTP
METAR KMTP 010854Z AUTO 00000KT M11/M15 A3070 RMK AO1 SLP394
T11061150 58009 $





000
SAUS41 KOKX 010855
MTRMTP
METAR KMTP 010854Z AUTO 00000KT M11/M15 A3070 RMK AO1 SLP394
T11061150 58009 $





000
SAUS41 KOKX 010852
MTRNYC
METAR KNYC 010851Z AUTO 00000KT 10SM CLR M04/M18 A3069 RMK AO2
SLP384 T10391183 58015





000
SAUS41 KOKX 010852
MTRNYC
METAR KNYC 010851Z AUTO 00000KT 10SM CLR M04/M18 A3069 RMK AO2
SLP384 T10391183 58015





000
SAUS41 KOKX 010755
MTRMTP
METAR KMTP 010754Z AUTO 00000KT M09/M14 A3072 RMK AO1 SLP401
T10941139 $





000
SAUS41 KOKX 010753
MTRNYC
METAR KNYC 010751Z AUTO 00000KT 10SM CLR M04/M18 A3070 RMK AO2
SLP390 T10391183





000
SAUS41 KOKX 010753
MTRNYC
METAR KNYC 010751Z AUTO 00000KT 10SM CLR M04/M18 A3070 RMK AO2
SLP390 T10391183





000
SAUS41 KOKX 010655
MTRMTP
METAR KMTP 010654Z AUTO 21003KT M08/M13 A3071 RMK AO1 SLP399
T10781128 $





000
SAUS41 KOKX 010655
MTRMTP
METAR KMTP 010654Z AUTO 21003KT M08/M13 A3071 RMK AO1 SLP399
T10781128 $





000
SAUS41 KOKX 010652
MTRNYC
METAR KNYC 010651Z AUTO 29003KT 10SM CLR M03/M18 A3073 RMK AO2
SLP400 T10331183





000
SAUS41 KOKX 010652
MTRNYC
METAR KNYC 010651Z AUTO 29003KT 10SM CLR M03/M18 A3073 RMK AO2
SLP400 T10331183





000
SAUS41 KOKX 010555
MTRMTP
METAR KMTP 010554Z AUTO 26003KT M05/M11 A3073 RMK AO1 SLP404
T10501106 11039 21056 56012 $





000
SAUS41 KOKX 010555
MTRMTP
METAR KMTP 010554Z AUTO 26003KT M05/M11 A3073 RMK AO1 SLP404
T10501106 11039 21056 56012 $





000
SAUS41 KOKX 010553
MTRNYC
METAR KNYC 010551Z AUTO 28004KT 10SM CLR M03/M18 A3073 RMK AO2
SLP399 T10331183 11022 21039 58012





000
SAUS41 KOKX 010553
MTRNYC
METAR KNYC 010551Z AUTO 28004KT 10SM CLR M03/M18 A3073 RMK AO2
SLP399 T10331183 11022 21039 58012





000
SAUS41 KOKX 010456
MTRMTP
METAR KMTP 010454Z AUTO 25004KT M04/M11 A3074 RMK AO1 SLP408
T10391106 410281083 $





000
SAUS41 KOKX 010456
MTRMTP
METAR KMTP 010454Z AUTO 25004KT M04/M11 A3074 RMK AO1 SLP408
T10391106 410281083 $





000
SAUS41 KOKX 010452
MTRNYC
METAR KNYC 010451Z AUTO 10SM CLR M03/M18 A3074 RMK AO2 SLP402
T10281178 410171106





000
SAUS41 KOKX 010452
MTRNYC
METAR KNYC 010451Z AUTO 10SM CLR M03/M18 A3074 RMK AO2 SLP402
T10281178 410171106





000
SAUS41 KOKX 010355
MTRMTP
METAR KMTP 010354Z AUTO 26005KT M04/M12 A3075 RMK AO1 SLP411
T10391122 $





000
SAUS41 KOKX 010353
MTRNYC
METAR KNYC 010351Z AUTO 26003KT 10SM CLR M03/M18 A3076 RMK AO2
SLP410 T10281178





000
SAUS41 KOKX 010353
MTRNYC
METAR KNYC 010351Z AUTO 26003KT 10SM CLR M03/M18 A3076 RMK AO2
SLP410 T10281178





000
SAUS41 KOKX 010255
MTRMTP
METAR KMTP 010254Z AUTO 24003KT M04/M12 A3076 RMK AO1 SLP416
T10441117 51005 $





000
SAUS41 KOKX 010255
MTRMTP
METAR KMTP 010254Z AUTO 24003KT M04/M12 A3076 RMK AO1 SLP416
T10441117 51005 $





000
SAUS41 KOKX 010253
MTRNYC
METAR KNYC 010251Z AUTO 28005KT 10SM CLR M03/M17 A3076 RMK AO2
SLP411 T10281172 50002





000
SAUS41 KOKX 010253
MTRNYC
METAR KNYC 010251Z AUTO 28005KT 10SM CLR M03/M17 A3076 RMK AO2
SLP411 T10281172 50002





000
SAUS41 KOKX 010155
MTRMTP
METAR KMTP 010154Z AUTO 25004KT M04/M11 A3076 RMK AO1 SLP416
T10391111 $





000
SAUS41 KOKX 010155
MTRMTP
METAR KMTP 010154Z AUTO 25004KT M04/M11 A3076 RMK AO1 SLP416
T10391111 $





000
SAUS41 KOKX 010152
MTRNYC
METAR KNYC 010151Z AUTO 27007KT 10SM CLR M03/M16 A3077 RMK AO2
SLP411 T10331161





000
SAUS41 KOKX 010055
MTRMTP
METAR KMTP 010054Z AUTO 25004KT M04/M11 A3075 RMK AO1 SLP412
T10391111 $





000
SAUS41 KOKX 010055
MTRMTP
METAR KMTP 010054Z AUTO 25004KT M04/M11 A3075 RMK AO1 SLP412
T10391111 $





000
SAUS41 KOKX 010052
MTRNYC
METAR KNYC 010051Z AUTO 26005KT 10SM CLR M02/M17 A3076 RMK AO2
SLP409 T10221167





000
SAUS41 KOKX 010052
MTRNYC
METAR KNYC 010051Z AUTO 26005KT 10SM CLR M02/M17 A3076 RMK AO2
SLP409 T10221167





000
SAUS41 KOKX 282355
MTRMTP
METAR KMTP 282354Z AUTO 25005KT M04/M11 A3075 RMK AO1 SLP411
T10391111 11028 21050 53004 $





000
SAUS41 KOKX 282355
MTRMTP
METAR KMTP 282354Z AUTO 25005KT M04/M11 A3075 RMK AO1 SLP411
T10391111 11028 21050 53004 $





000
SAUS41 KOKX 282352
MTRNYC
METAR KNYC 282351Z AUTO 00000KT 10SM CLR M02/M18 A3076 RMK AO2
SLP409 T10221183 11017 21044 53001





000
SAUS41 KOKX 282352
MTRNYC
METAR KNYC 282351Z AUTO 00000KT 10SM CLR M02/M18 A3076 RMK AO2
SLP409 T10221183 11017 21044 53001





000
SAUS41 KOKX 282255
MTRMTP
METAR KMTP 282254Z AUTO 25005KT M04/M12 A3074 RMK AO1 SLP410
T10391117 $





000
SAUS41 KOKX 282255
MTRMTP
METAR KMTP 282254Z AUTO 25005KT M04/M12 A3074 RMK AO1 SLP410
T10391117 $





000
SAUS41 KOKX 282253
MTRNYC
METAR KNYC 282251Z AUTO 00000KT 10SM CLR M02/M18 A3075 RMK AO2
SLP405 T10221183





000
SAUS41 KOKX 282253
MTRNYC
METAR KNYC 282251Z AUTO 00000KT 10SM CLR M02/M18 A3075 RMK AO2
SLP405 T10221183





000
SAUS41 KOKX 282155
MTRMTP
METAR KMTP 282154Z AUTO 25005KT M03/M13 A3073 RMK AO1 SLP405
T10331133 $





000
SAUS41 KOKX 282153
MTRNYC
METAR KNYC 282151Z AUTO 25005KT 10SM CLR M02/M18 A3076 RMK AO2
SLP408 T10171183





000
SAUS41 KOKX 282153
MTRNYC
METAR KNYC 282151Z AUTO 25005KT 10SM CLR M02/M18 A3076 RMK AO2
SLP408 T10171183





000
SAUS41 KOKX 282055
MTRMTP
METAR KMTP 282054Z AUTO 25005KT M03/M13 A3073 RMK AO1 SLP407
T10331128 56013 $





000
SAUS41 KOKX 282055
MTRMTP
METAR KMTP 282054Z AUTO 25005KT M03/M13 A3073 RMK AO1 SLP407
T10331128 56013 $





000
SAUS41 KOKX 282052
MTRNYC
METAR KNYC 282051Z AUTO 26004KT 10SM CLR M02/M18 A3076 RMK AO2
SLP408 T10221183 56014





000
SAUS41 KOKX 281955
MTRMTP
METAR KMTP 281954Z AUTO 25005KT M03/M13 A3074 RMK AO1 SLP407
T10331128 $





000
SAUS41 KOKX 281955
MTRMTP
METAR KMTP 281954Z AUTO 25005KT M03/M13 A3074 RMK AO1 SLP407
T10331128 $





000
SAUS41 KOKX 281953
MTRNYC
METAR KNYC 281951Z AUTO 31004KT 10SM CLR M02/M18 A3077 RMK AO2
SLP412 T10221178





000
SAUS41 KOKX 281953
MTRNYC
METAR KNYC 281951Z AUTO 31004KT 10SM CLR M02/M18 A3077 RMK AO2
SLP412 T10221178





000
SAUS41 KOKX 281855
MTRMTP
METAR KMTP 281854Z AUTO 31007KT M04/M15 A3074 RMK AO1 SLP410
T10391150 $





000
SAUS41 KOKX 281855
MTRMTP
METAR KMTP 281854Z AUTO 31007KT M04/M15 A3074 RMK AO1 SLP410
T10391150 $





000
SAUS41 KOKX 281852
MTRNYC
METAR KNYC 281851Z AUTO 00000KT 10SM CLR M04/M18 A3078 RMK AO2
SLP416 T10391183





000
SAUS41 KOKX 281852
MTRNYC
METAR KNYC 281851Z AUTO 00000KT 10SM CLR M04/M18 A3078 RMK AO2
SLP416 T10391183





000
SAUS41 KOKX 281755
MTRMTP
METAR KMTP 281754Z AUTO VRB05KT M05/M14 A3077 RMK AO1 SLP420
T10501139 11044 21083 58004 $





000
SAUS41 KOKX 281755
MTRMTP
METAR KMTP 281754Z AUTO VRB05KT M05/M14 A3077 RMK AO1 SLP420
T10501139 11044 21083 58004 $





000
SAUS41 KOKX 281752
MTRNYC
METAR KNYC 281751Z AUTO 00000KT 10SM CLR M04/M17 A3080 RMK AO2
SLP422 T10391172 11033 21106 58011





000
SAUS41 KOKX 281752
MTRNYC
METAR KNYC 281751Z AUTO 00000KT 10SM CLR M04/M17 A3080 RMK AO2
SLP422 T10391172 11033 21106 58011





000
SAUS41 KOKX 281656
MTRMTP
METAR KMTP 281654Z AUTO VRB04KT M05/M14 A3078 RMK AO1 SLP424
T10501139 $





000
SAUS41 KOKX 281656
MTRMTP
METAR KMTP 281654Z AUTO VRB04KT M05/M14 A3078 RMK AO1 SLP424
T10501139 $





000
SAUS41 KOKX 281653
MTRNYC
METAR KNYC 281651Z AUTO 30004KT 10SM CLR M05/M19 A3083 RMK AO2
SLP431 T10501189





000
SAUS41 KOKX 281653
MTRNYC
METAR KNYC 281651Z AUTO 30004KT 10SM CLR M05/M19 A3083 RMK AO2
SLP431 T10501189





000
SAUS41 KOKX 281555
MTRMTP
METAR KMTP 281554Z AUTO 30005KT M06/M14 A3079 RMK AO1 SLP425
T10561144 $





000
SAUS41 KOKX 281552
MTRNYC
METAR KNYC 281551Z AUTO VRB03KT 10SM CLR M07/M19 A3083 RMK AO2
SLP432 T10671189





000
SAUS41 KOKX 281455
MTRMTP
METAR KMTP 281454Z AUTO 30007KT M06/M15 A3078 RMK AO1 SLP424
T10611150 51017 $





000
SAUS41 KOKX 281453
MTRNYC
METAR KNYC 281451Z AUTO 00000KT 10SM CLR M08/M19 A3083 RMK AO2
SLP433 T10781189 50016





000
SAUS41 KOKX 281453
MTRNYC
METAR KNYC 281451Z AUTO 00000KT 10SM CLR M08/M19 A3083 RMK AO2
SLP433 T10781189 50016





000
SAUS41 KOKX 281355
MTRMTP
METAR KMTP 281354Z AUTO 34006KT M07/M15 A3078 RMK AO1 SLP422
T10721150 $





000
SAUS41 KOKX 281355
MTRMTP
METAR KMTP 281354Z AUTO 34006KT M07/M15 A3078 RMK AO1 SLP422
T10721150 $





000
SAUS41 KOKX 281353
MTRNYC
METAR KNYC 281351Z AUTO 35004KT 10SM CLR M08/M19 A3083 RMK AO2
SLP434 T10831189





000
SAUS41 KOKX 281353
MTRNYC
METAR KNYC 281351Z AUTO 35004KT 10SM CLR M08/M19 A3083 RMK AO2
SLP434 T10831189





000
SAUS41 KOKX 281258 COR
MTRNYC
METAR KNYC 281251Z AUTO VRB03KT 10SM CLR M10/M19 A3082 RMK AO2
SLP429 T11001194





000
SAUS41 KOKX 281258 COR
MTRNYC
METAR KNYC 281251Z AUTO VRB03KT 10SM CLR M10/M19 A3082 RMK AO2
SLP429 T11001194





000
SAUS41 KOKX 281255
MTRMTP
METAR KMTP 281254Z AUTO 33007KT M08/M15 A3076 RMK AO1 SLP417
T10781150 $





000
SAUS41 KOKX 281255
MTRMTP
METAR KMTP 281254Z AUTO 33007KT M08/M15 A3076 RMK AO1 SLP417
T10781150 $





000
SAUS41 KOKX 281253 COR
MTRNYC
METAR KNYC 281251Z AUTO VRB03KT 10SM CLR M10/M19 A3082 RMK AO2
SLP429 T11001194





000
SAUS41 KOKX 281253 COR
MTRNYC
METAR KNYC 281251Z AUTO VRB03KT 10SM CLR M10/M19 A3082 RMK AO2
SLP429 T11001194





000
SAUS41 KOKX 281155
MTRMTP
METAR KMTP 281154Z AUTO 34008KT M08/M16 A3073 RMK AO1 SLP407
T10831156 11061 21083 53028 $





000
SAUS41 KOKX 281155
MTRMTP
METAR KMTP 281154Z AUTO 34008KT M08/M16 A3073 RMK AO1 SLP407
T10831156 11061 21083 53028 $





000
SAUS41 KOKX 281152
MTRNYC
METAR KNYC 281151Z AUTO VRB03KT 10SM CLR M10/M20 A3078 RMK AO2
SLP417 T11001200 11072 21100 51029





000
SAUS41 KOKX 281152
MTRNYC
METAR KNYC 281151Z AUTO VRB03KT 10SM CLR M10/M20 A3078 RMK AO2
SLP417 T11001200 11072 21100 51029





000
SAUS41 KOKX 281055
MTRMTP
METAR KMTP 281054Z AUTO 34008KT M08/M16 A3070 RMK AO1 SLP396
T10831156 $





000
SAUS41 KOKX 281055
MTRMTP
METAR KMTP 281054Z AUTO 34008KT M08/M16 A3070 RMK AO1 SLP396
T10831156 $





000
SAUS41 KOKX 281053
MTRNYC
METAR KNYC 281051Z AUTO VRB04KT 10SM CLR M10/M20 A3076 RMK AO2
SLP410 T11001200





000
SAUS41 KOKX 281053
MTRNYC
METAR KNYC 281051Z AUTO VRB04KT 10SM CLR M10/M20 A3076 RMK AO2
SLP410 T11001200





000
SAUS41 KOKX 280955
MTRMTP
METAR KMTP 280954Z AUTO 32007KT M08/M16 A3068 RMK AO1 SLP388
T10831161 $





000
SAUS41 KOKX 280953
MTRNYC
METAR KNYC 280951Z AUTO VRB04KT 10SM CLR M09/M20 A3073 RMK AO2
SLP398 T10941200





000
SAUS41 KOKX 280855
MTRMTP
METAR KMTP 280854Z AUTO 33009KT M08/M16 A3065 RMK AO1 SLP379
T10781156 53016 $





000
SAUS41 KOKX 280852
MTRNYC
METAR KNYC 280851Z AUTO VRB04KT 10SM CLR M09/M21 A3070 RMK AO2
SLP388 T10891206 53014





000
SAUS41 KOKX 280755
MTRMTP
METAR KMTP 280754Z AUTO 33009KT M07/M14 A3063 RMK AO1 SLP370
T10721144 $





000
SAUS41 KOKX 280752
MTRNYC
METAR KNYC 280751Z AUTO VRB03KT 10SM CLR M08/M20 A3068 RMK AO2
SLP381 T10831200





000
SAUS41 KOKX 280655
MTRMTP
METAR KMTP 280654Z AUTO 34012KT M07/M15 A3061 RMK AO1 SLP364
T10671150 $





000
SAUS41 KOKX 280655
MTRMTP
METAR KMTP 280654Z AUTO 34012KT M07/M15 A3061 RMK AO1 SLP364
T10671150 $





000
SAUS41 KOKX 280652
MTRNYC
METAR KNYC 280651Z AUTO VRB04KT 10SM CLR M07/M20 A3067 RMK AO2
SLP377 T10721200





000
SAUS41 KOKX 280652
MTRNYC
METAR KNYC 280651Z AUTO VRB04KT 10SM CLR M07/M20 A3067 RMK AO2
SLP377 T10721200





000
SAUS41 KOKX 280555
MTRMTP
METAR KMTP 280554Z AUTO 32012G18KT M06/M15 A3060 RMK AO1 SLP363
T10611150 11028 21061 53022





000
SAUS41 KOKX 280555
MTRMTP
METAR KMTP 280554Z AUTO 32012G18KT M06/M15 A3060 RMK AO1 SLP363
T10611150 11028 21061 53022





000
SAUS41 KOKX 280553
MTRNYC
METAR KNYC 280551Z AUTO 10SM CLR M07/M19 A3066 RMK AO2 SLP374
T10721194 11028 21072 51022





000
SAUS41 KOKX 280553
MTRNYC
METAR KNYC 280551Z AUTO 10SM CLR M07/M19 A3066 RMK AO2 SLP374
T10721194 11028 21072 51022





000
SAUS41 KOKX 280456
MTRMTP
METAR KMTP 280454Z AUTO 32013G21KT M06/M16 A3057 RMK AO1 SLP350
T10561161 410281083





000
SAUS41 KOKX 280456
MTRMTP
METAR KMTP 280454Z AUTO 32013G21KT M06/M16 A3057 RMK AO1 SLP350
T10561161 410281083





000
SAUS41 KOKX 280453
MTRNYC
METAR KNYC 280451Z AUTO 30007KT 10SM CLR M06/M19 A3063 RMK AO2
SLP366 T10611194 410111078





000
SAUS41 KOKX 280453
MTRNYC
METAR KNYC 280451Z AUTO 30007KT 10SM CLR M06/M19 A3063 RMK AO2
SLP366 T10611194 410111078





000
SAUS41 KOKX 280355
MTRMTP
METAR KMTP 280354Z AUTO 33011KT M04/M15 A3056 RMK AO1 SLP347
T10441150





000
SAUS41 KOKX 280355
MTRMTP
METAR KMTP 280354Z AUTO 33011KT M04/M15 A3056 RMK AO1 SLP347
T10441150





000
SAUS41 KOKX 280353
MTRNYC
METAR KNYC 280351Z AUTO 35009KT 10SM CLR M06/M19 A3062 RMK AO2
SLP360 T10561189





000
SAUS41 KOKX 280353
MTRNYC
METAR KNYC 280351Z AUTO 35009KT 10SM CLR M06/M19 A3062 RMK AO2
SLP360 T10561189





000
SAUS41 KOKX 280255
MTRMTP
METAR KMTP 280254Z AUTO 32012KT M04/M16 A3054 RMK AO1 SLP341
T10391156 53028





000
SAUS41 KOKX 280255
MTRMTP
METAR KMTP 280254Z AUTO 32012KT M04/M16 A3054 RMK AO1 SLP341
T10391156 53028





000
SAUS41 KOKX 280253
MTRNYC
METAR KNYC 280251Z AUTO 10SM CLR M04/M18 A3059 RMK AO2 SLP352
T10441178 51033





000
SAUS41 KOKX 280253
MTRNYC
METAR KNYC 280251Z AUTO 10SM CLR M04/M18 A3059 RMK AO2 SLP352
T10441178 51033





000
SAUS41 KOKX 280155
MTRMTP
METAR KMTP 280154Z AUTO 31011G19KT M04/M16 A3051 RMK AO1 SLP331
T10391161





000
SAUS41 KOKX 280155
MTRMTP
METAR KMTP 280154Z AUTO 31011G19KT M04/M16 A3051 RMK AO1 SLP331
T10391161





000
SAUS41 KOKX 280152
MTRNYC
METAR KNYC 280151Z AUTO 30006KT 10SM CLR M04/M18 A3056 RMK AO2
SLP342 T10391183





000
SAUS41 KOKX 280152
MTRNYC
METAR KNYC 280151Z AUTO 30006KT 10SM CLR M04/M18 A3056 RMK AO2
SLP342 T10391183





000
SAUS41 KOKX 280055
MTRMTP
METAR KMTP 280054Z AUTO 30010KT M03/M16 A3047 RMK AO1 SLP319
T10281161





000
SAUS41 KOKX 280055
MTRMTP
METAR KMTP 280054Z AUTO 30010KT M03/M16 A3047 RMK AO1 SLP319
T10281161





000
SAUS41 KOKX 280053
MTRNYC
METAR KNYC 280051Z AUTO 31008G15KT 10SM CLR M03/M17 A3052 RMK AO2
SLP329 T10331167





000
SAUS41 KOKX 280053
MTRNYC
METAR KNYC 280051Z AUTO 31008G15KT 10SM CLR M03/M17 A3052 RMK AO2
SLP329 T10331167





000
SAUS41 KOKX 272355
MTRMTP
METAR KMTP 272354Z AUTO 25008KT M03/M12 A3046 RMK AO1 SLP313
T10331122 11028 21033 53022





000
SAUS41 KOKX 272355
MTRMTP
METAR KMTP 272354Z AUTO 25008KT M03/M12 A3046 RMK AO1 SLP313
T10331122 11028 21033 53022





000
SAUS41 KOKX 272352
MTRNYC
METAR KNYC 272351Z AUTO 30007KT 10SM CLR M03/M17 A3049 RMK AO2
SLP319 T10281167 11011 21028 53024





000
SAUS41 KOKX 272352
MTRNYC
METAR KNYC 272351Z AUTO 30007KT 10SM CLR M03/M17 A3049 RMK AO2
SLP319 T10281167 11011 21028 53024





000
SAUS41 KOKX 272255
MTRMTP
METAR KMTP 272254Z AUTO VRB06KT M03/M13 A3044 RMK AO1 SLP306
T10331128





000
SAUS41 KOKX 272255
MTRMTP
METAR KMTP 272254Z AUTO VRB06KT M03/M13 A3044 RMK AO1 SLP306
T10331128





000
SAUS41 KOKX 272252
MTRNYC
METAR KNYC 272251Z AUTO VRB05KT 10SM CLR M02/M17 A3047 RMK AO2
SLP311 T10221167





000
SAUS41 KOKX 272252
MTRNYC
METAR KNYC 272251Z AUTO VRB05KT 10SM CLR M02/M17 A3047 RMK AO2
SLP311 T10221167





000
SAUS41 KOKX 272155
MTRMTP
METAR KMTP 272154Z AUTO 25005KT M03/M13 A3040 RMK AO1 SLP295
T10331128





000
SAUS41 KOKX 272155
MTRMTP
METAR KMTP 272154Z AUTO 25005KT M03/M13 A3040 RMK AO1 SLP295
T10331128





000
SAUS41 KOKX 272152
MTRNYC
METAR KNYC 272151Z AUTO 30009KT 10SM CLR M02/M17 A3044 RMK AO2
SLP302 T10171167





000
SAUS41 KOKX 272152
MTRNYC
METAR KNYC 272151Z AUTO 30009KT 10SM CLR M02/M17 A3044 RMK AO2
SLP302 T10171167





000
SAUS41 KOKX 272055
MTRMTP
METAR KMTP 272054Z AUTO 25007KT M03/M12 A3039 RMK AO1 SLP291
T10281122 53013





000
SAUS41 KOKX 272055
MTRMTP
METAR KMTP 272054Z AUTO 25007KT M03/M12 A3039 RMK AO1 SLP291
T10281122 53013





000
SAUS41 KOKX 272052
MTRNYC
METAR KNYC 272051Z AUTO 30007KT 260V320 10SM CLR M01/M17 A3042 RMK
AO2 SLP295 T10111167 53007





000
SAUS41 KOKX 272052
MTRNYC
METAR KNYC 272051Z AUTO 30007KT 260V320 10SM CLR M01/M17 A3042 RMK
AO2 SLP295 T10111167 53007





000
SAUS41 KOKX 271954 RRB
MTRNYC

METAR KNYC 271951Z AUTO VRB06KT 10SM CLR M02/M17 A3040 RMK AO2 SLP289
     T10171167 $










000
SAUS41 KOKX 271954 RRB
MTRNYC

METAR KNYC 271951Z AUTO VRB06KT 10SM CLR M02/M17 A3040 RMK AO2 SLP289
     T10171167 $










000
SAUS41 KOKX 271859 RRB
MTRNYC

METAR KNYC 271851Z AUTO 30006KT 10SM CLR M03/M16 A3040 RMK AO2 SLP286
     T10281161 $









000
SAUS41 KOKX 271859 RRB
MTRNYC

METAR KNYC 271851Z AUTO 30006KT 10SM CLR M03/M16 A3040 RMK AO2 SLP286
     T10281161 $









000
SAUS41 KOKX 271825 RRB
MTRNYC

METAR KNYC 271751Z AUTO VRB04KT 10SM CLR M02/M14 A3040 RMK AO2 SLP287
     T10221144 11022 21078 58001 $








000
SAUS41 KOKX 271825 RRB
MTRNYC

METAR KNYC 271751Z AUTO VRB04KT 10SM CLR M02/M14 A3040 RMK AO2 SLP287
     T10221144 11022 21078 58001 $








000
SAUS41 KOKX 271601
MTRNYC

METAR KNYC 271551Z AUTO VRB04KT 10SM CLR M05/M15 A3042 RMK AO2 SLP293
     T10501150 $








000
SAUS41 KOKX 271601
MTRNYC

METAR KNYC 271551Z AUTO VRB04KT 10SM CLR M05/M15 A3042 RMK AO2 SLP293
     T10501150 $








000
SAUS41 KOKX 271455
MTRMTP
METAR KMTP 271454Z AUTO 36005KT M05/M14 A3036 RMK AO1 SLP281
T10501144 51021





000
SAUS41 KOKX 271455
MTRMTP
METAR KMTP 271454Z AUTO 36005KT M05/M14 A3036 RMK AO1 SLP281
T10501144 51021





000
SAUS41 KOKX 271452
MTRNYC
METAR KNYC 271451Z AUTO VRB04KT 10SM CLR M07/M16 A3040 RMK AO2
SLP288 T10671156 51021 $





000
SAUS41 KOKX 271452
MTRNYC
METAR KNYC 271451Z AUTO VRB04KT 10SM CLR M07/M16 A3040 RMK AO2
SLP288 T10671156 51021 $





000
SAUS41 KOKX 271355
MTRMTP
METAR KMTP 271354Z AUTO 36008KT M05/M14 A3035 RMK AO1 SLP276
T10501144





000
SAUS41 KOKX 271355
MTRMTP
METAR KMTP 271354Z AUTO 36008KT M05/M14 A3035 RMK AO1 SLP276
T10501144





000
SAUS41 KOKX 271353
MTRNYC
METAR KNYC 271351Z AUTO 10SM CLR M07/M16 A3039 RMK AO2 SLP285
T10721156 $





000
SAUS41 KOKX 271353
MTRNYC
METAR KNYC 271351Z AUTO 10SM CLR M07/M16 A3039 RMK AO2 SLP285
T10721156 $





    US Dept of Commerce
    National Oceanic and Atmospheric Administration
    National Weather Service
    1325 East West Highway
    Silver Spring, MD 20910
    Page Author: NWS Internet Services Team
Disclaimer
Information Quality
Credits
Glossary
Privacy Policy
Freedom of Information Act (FOIA)
About Us
Career Opportunities